createdAt,value
2018-05-24T00:02:05.799Z,18.38
2018-05-24T00:04:34.190Z,18.25
2018-05-24T00:07:02.618Z,18.04
2018-05-24T00:09:31.050Z,17.82
2018-05-24T00:11:59.470Z,17.96
2018-05-24T00:14:27.864Z,17.88
2018-05-24T00:16:56.250Z,17.94
2018-05-24T00:19:24.702Z,17.74
2018-05-24T00:21:53.143Z,17.77
2018-05-24T00:24:21.552Z,17.69
2018-05-24T00:26:49.996Z,17.62
2018-05-24T00:29:18.411Z,17.51
2018-05-24T00:31:46.787Z,17.59
2018-05-24T00:34:15.240Z,17.52
2018-05-24T00:36:43.636Z,17.41
2018-05-24T00:39:12.232Z,17.30
2018-05-24T00:41:40.620Z,17.27
2018-05-24T00:44:09.082Z,17.27
2018-05-24T00:46:37.501Z,17.05
2018-05-24T00:49:05.953Z,16.50
2018-05-24T00:51:34.326Z,16.24
2018-05-24T00:54:02.713Z,16.19
2018-05-24T00:56:31.163Z,16.45
2018-05-24T00:58:59.526Z,16.50
2018-05-24T01:01:27.895Z,16.67
2018-05-24T01:03:56.336Z,16.75
2018-05-24T01:06:24.739Z,16.89
2018-05-24T01:08:53.216Z,16.89
2018-05-24T01:11:21.607Z,16.72
2018-05-24T01:13:50.097Z,16.77
2018-05-24T01:16:18.512Z,16.83
2018-05-24T01:18:46.902Z,16.68
2018-05-24T01:21:15.330Z,16.69
2018-05-24T01:23:43.782Z,16.81
2018-05-24T01:26:12.189Z,16.82
2018-05-24T01:28:40.623Z,16.77
2018-05-24T01:31:09.058Z,16.73
2018-05-24T01:33:37.503Z,16.72
2018-05-24T01:36:05.916Z,16.59
2018-05-24T01:38:34.322Z,16.51
2018-05-24T01:41:02.815Z,16.59
2018-05-24T01:43:31.257Z,16.50
2018-05-24T01:45:59.684Z,16.48
2018-05-24T01:48:28.142Z,16.42
2018-05-24T01:50:56.607Z,16.51
2018-05-24T01:53:25.052Z,16.53
2018-05-24T01:55:53.480Z,16.30
2018-05-24T01:58:21.894Z,16.47
2018-05-24T02:00:50.299Z,16.69
2018-05-24T02:03:18.690Z,16.85
2018-05-24T02:05:47.078Z,16.86
2018-05-24T02:08:15.538Z,16.63
2018-05-24T02:10:43.898Z,16.83
2018-05-24T02:13:12.374Z,16.75
2018-05-24T02:15:40.767Z,16.85
2018-05-24T02:18:09.155Z,16.80
2018-05-24T02:20:37.592Z,16.53
2018-05-24T02:23:06.050Z,16.42
2018-05-24T02:25:34.447Z,16.62
2018-05-24T02:28:02.832Z,16.46
2018-05-24T02:30:31.303Z,16.47
2018-05-24T02:32:59.734Z,16.31
2018-05-24T02:35:28.133Z,16.28
2018-05-24T02:37:56.563Z,16.44
2018-05-24T02:40:25.084Z,16.42
2018-05-24T02:42:53.495Z,16.34
2018-05-24T02:45:21.928Z,16.32
2018-05-24T02:47:50.331Z,16.36
2018-05-24T02:50:18.705Z,16.30
2018-05-24T02:52:47.147Z,16.56
2018-05-24T02:55:15.539Z,16.38
2018-05-24T02:57:43.973Z,16.32
2018-05-24T03:00:12.355Z,16.34
2018-05-24T03:02:40.801Z,16.29
2018-05-24T03:05:09.184Z,16.40
2018-05-24T03:07:38.318Z,16.43
2018-05-24T03:10:06.759Z,16.15
2018-05-24T03:12:35.272Z,15.86
2018-05-24T03:15:03.759Z,16.23
2018-05-24T03:17:32.183Z,16.09
2018-05-24T03:20:00.794Z,16.24
2018-05-24T03:22:29.241Z,16.50
2018-05-24T03:24:57.649Z,16.37
2018-05-24T03:27:26.091Z,16.41
2018-05-24T03:29:54.487Z,16.60
2018-05-24T03:32:22.897Z,16.59
2018-05-24T03:34:51.305Z,16.82
2018-05-24T03:37:19.740Z,16.60
2018-05-24T03:39:48.119Z,16.65
2018-05-24T03:42:16.531Z,16.87
2018-05-24T03:44:44.912Z,16.86
2018-05-24T03:47:13.343Z,17.15
2018-05-24T03:49:41.728Z,16.84
2018-05-24T03:52:10.154Z,17.12
2018-05-24T03:54:38.620Z,17.10
2018-05-24T03:57:07.030Z,17.13
2018-05-24T04:02:56.417Z,17.19
2018-05-24T04:05:24.842Z,17.18
2018-05-24T04:07:53.263Z,17.18
2018-05-24T04:10:21.750Z,16.97
2018-05-24T04:12:50.159Z,17.11
2018-05-24T04:15:18.603Z,17.08
2018-05-24T04:17:47.018Z,17.09
2018-05-24T04:20:15.431Z,17.08
2018-05-24T04:22:43.879Z,17.18
2018-05-24T04:25:12.324Z,16.95
2018-05-24T04:27:40.724Z,17.18
2018-05-24T04:30:09.148Z,17.44
2018-05-24T04:32:37.592Z,17.40
2018-05-24T04:35:05.994Z,17.60
2018-05-24T04:37:34.396Z,17.28
2018-05-24T04:40:02.841Z,17.44
2018-05-24T04:42:31.270Z,17.40
2018-05-24T04:44:59.653Z,17.74
2018-05-24T04:47:28.090Z,17.84
2018-05-24T04:49:56.528Z,18.25
2018-05-24T04:52:24.944Z,18.38
2018-05-24T04:54:53.315Z,18.23
2018-05-24T04:57:21.806Z,17.83
2018-05-24T04:59:50.234Z,18.15
2018-05-24T05:02:18.700Z,18.59
2018-05-24T05:04:47.109Z,18.81
2018-05-24T05:07:15.544Z,18.80
2018-05-24T05:09:43.993Z,18.93
2018-05-24T05:12:12.383Z,19.19
2018-05-24T05:14:40.802Z,19.18
2018-05-24T05:17:09.254Z,19.44
2018-05-24T05:19:37.714Z,19.58
2018-05-24T05:22:06.135Z,19.76
2018-05-24T05:24:34.532Z,19.64
2018-05-24T05:27:02.971Z,19.86
2018-05-24T05:29:31.339Z,20.07
2018-05-24T05:31:59.786Z,20.17
2018-05-24T05:34:28.190Z,20.69
2018-05-24T05:36:56.643Z,20.59
2018-05-24T05:39:25.041Z,20.95
2018-05-24T05:41:53.523Z,20.87
2018-05-24T05:44:21.973Z,20.65
2018-05-24T05:46:50.445Z,21.06
2018-05-24T05:49:18.825Z,20.84
2018-05-24T05:51:47.217Z,21.23
2018-05-24T05:54:15.666Z,21.30
2018-05-24T05:56:44.180Z,21.42
2018-05-24T05:59:12.590Z,21.85
2018-05-24T06:01:41.102Z,22.15
2018-05-24T06:04:09.523Z,22.32
2018-05-24T06:06:37.971Z,22.17
2018-05-24T06:09:08.393Z,22.13
2018-05-24T06:11:36.795Z,21.52
2018-05-24T06:14:05.244Z,20.97
2018-05-24T06:16:33.627Z,20.84
2018-05-24T06:19:02.113Z,21.22
2018-05-24T06:21:30.555Z,21.44
2018-05-24T06:23:58.981Z,21.45
2018-05-24T06:26:27.519Z,21.72
2018-05-24T06:28:55.936Z,21.35
2018-05-24T06:31:24.339Z,21.19
2018-05-24T06:33:52.817Z,21.48
2018-05-24T06:36:21.230Z,21.83
2018-05-24T06:38:49.614Z,21.70
2018-05-24T06:41:18.045Z,21.82
2018-05-24T06:43:46.484Z,21.89
2018-05-24T06:46:14.939Z,21.96
2018-05-24T06:48:43.463Z,21.54
2018-05-24T06:51:11.838Z,21.92
2018-05-24T06:53:40.283Z,22.27
2018-05-24T06:56:08.775Z,22.72
2018-05-24T06:58:37.222Z,22.49
2018-05-24T07:01:05.685Z,22.63
2018-05-24T07:03:34.303Z,22.86
2018-05-24T07:06:02.823Z,23.21
2018-05-24T07:08:31.198Z,23.37
2018-05-24T07:10:59.620Z,22.76
2018-05-24T07:13:28.059Z,23.02
2018-05-24T07:15:56.482Z,22.82
2018-05-24T07:18:24.868Z,23.24
2018-05-24T07:20:53.443Z,23.24
2018-05-24T07:23:21.840Z,23.41
2018-05-24T07:25:50.283Z,23.30
2018-05-24T07:28:18.692Z,23.78
2018-05-24T07:30:47.179Z,23.26
2018-05-24T07:33:15.577Z,23.49
2018-05-24T07:35:44.041Z,23.48
2018-05-24T07:38:12.411Z,23.99
2018-05-24T07:40:40.815Z,24.22
2018-05-24T07:43:09.247Z,24.42
2018-05-24T07:45:37.651Z,24.55
2018-05-24T07:48:06.035Z,24.88
2018-05-24T07:50:34.483Z,24.51
2018-05-24T07:53:02.906Z,25.03
2018-05-24T07:55:31.349Z,25.27
2018-05-24T07:57:59.850Z,25.69
2018-05-24T08:00:28.219Z,26.07
2018-05-24T08:02:56.624Z,26.57
2018-05-24T08:05:25.074Z,26.70
2018-05-24T08:07:53.527Z,26.72
2018-05-24T08:10:21.975Z,26.58
2018-05-24T08:12:50.906Z,27.06
2018-05-24T08:15:19.470Z,26.91
2018-05-24T08:17:47.849Z,27.79
2018-05-24T08:20:16.273Z,27.10
2018-05-24T08:22:44.651Z,26.72
2018-05-24T08:25:13.063Z,27.04
2018-05-24T08:27:41.443Z,26.89
2018-05-24T08:30:09.878Z,27.50
2018-05-24T08:32:38.403Z,27.01
2018-05-24T08:35:06.826Z,27.54
2018-05-24T08:37:35.236Z,27.29
2018-05-24T08:40:03.651Z,26.79
2018-05-24T08:42:32.046Z,27.09
2018-05-24T08:45:00.491Z,26.49
2018-05-24T08:47:29.039Z,25.88
2018-05-24T08:49:57.418Z,24.31
2018-05-24T08:52:25.877Z,24.90
2018-05-24T08:54:54.265Z,24.65
2018-05-24T08:57:22.700Z,24.64
2018-05-24T08:59:51.092Z,25.31
2018-05-24T09:02:19.514Z,25.50
2018-05-24T09:04:47.942Z,25.30
2018-05-24T09:07:16.356Z,25.51
2018-05-24T09:09:44.750Z,26.02
2018-05-24T09:12:13.172Z,27.06
2018-05-24T09:14:41.541Z,27.03
2018-05-24T09:17:09.931Z,27.51
2018-05-24T09:19:38.391Z,26.84
2018-05-24T09:22:06.802Z,27.06
2018-05-24T09:24:35.183Z,26.84
2018-05-24T09:27:03.633Z,26.85
2018-05-24T09:29:32.087Z,27.10
2018-05-24T09:32:00.495Z,26.89
2018-05-24T09:34:28.915Z,26.37
2018-05-24T09:36:57.391Z,26.63
2018-05-24T09:39:25.818Z,26.87
2018-05-24T09:41:54.895Z,26.64
2018-05-24T09:44:23.592Z,26.68
2018-05-24T09:46:51.966Z,25.83
2018-05-24T09:49:20.372Z,26.46
2018-05-24T09:51:48.803Z,26.69
2018-05-24T09:54:17.217Z,25.48
2018-05-24T09:56:45.635Z,25.20
2018-05-24T09:59:14.063Z,25.80
2018-05-24T10:01:42.487Z,26.08
2018-05-24T10:04:10.861Z,24.91
2018-05-24T10:06:39.270Z,24.35
2018-05-24T10:09:07.711Z,24.56
2018-05-24T10:11:36.180Z,24.97
2018-05-24T10:14:04.701Z,25.07
2018-05-24T10:16:33.201Z,25.19
2018-05-24T10:19:01.565Z,25.31
2018-05-24T10:21:29.926Z,24.85
2018-05-24T10:23:58.343Z,25.11
2018-05-24T10:26:26.790Z,25.42
2018-05-24T10:28:55.143Z,25.50
2018-05-24T10:31:23.516Z,26.02
2018-05-24T10:33:51.991Z,25.70
2018-05-24T10:36:20.462Z,26.05
2018-05-24T10:38:48.854Z,25.80
2018-05-24T10:41:17.251Z,25.61
2018-05-24T10:43:45.651Z,25.08
2018-05-24T10:46:14.079Z,25.12
2018-05-24T10:48:42.463Z,25.26
2018-05-24T10:51:10.954Z,25.73
2018-05-24T10:53:39.314Z,26.08
2018-05-24T10:56:07.719Z,26.78
2018-05-24T10:58:36.146Z,27.89
2018-05-24T11:01:04.538Z,28.22
2018-05-24T11:03:32.946Z,28.13
2018-05-24T11:06:01.452Z,27.72
2018-05-24T11:08:29.963Z,26.36
2018-05-24T11:10:58.359Z,26.40
2018-05-24T11:13:26.787Z,26.58
2018-05-24T11:15:55.203Z,26.29
2018-05-24T11:18:23.631Z,25.94
2018-05-24T11:20:52.056Z,25.34
2018-05-24T11:23:20.499Z,24.47
2018-05-24T11:25:48.915Z,23.77
2018-05-24T11:28:17.283Z,23.68
2018-05-24T11:30:45.770Z,23.22
2018-05-24T11:33:14.149Z,23.11
2018-05-24T11:35:42.528Z,22.75
2018-05-24T11:38:10.956Z,22.96
2018-05-24T11:40:39.381Z,23.33
2018-05-24T11:43:07.808Z,23.18
2018-05-24T11:45:36.251Z,22.80
2018-05-24T11:48:04.716Z,22.85
2018-05-24T11:50:33.195Z,22.63
2018-05-24T11:53:01.615Z,22.39
2018-05-24T11:55:30.031Z,21.71
2018-05-24T11:57:58.413Z,21.88
2018-05-24T12:00:26.823Z,21.93
2018-05-24T12:02:55.198Z,21.68
2018-05-24T12:05:23.605Z,21.10
2018-05-24T12:07:52.075Z,20.87
2018-05-24T12:10:20.490Z,21.19
2018-05-24T12:12:48.911Z,20.89
2018-05-24T12:15:17.343Z,20.70
2018-05-24T12:17:45.742Z,20.54
2018-05-24T12:20:14.126Z,20.66
2018-05-24T12:22:42.586Z,20.36
2018-05-24T12:25:11.043Z,20.51
2018-05-24T12:27:39.447Z,20.29
2018-05-24T12:30:07.896Z,20.11
2018-05-24T12:32:36.307Z,20.35
2018-05-24T12:35:04.697Z,20.40
2018-05-24T12:37:33.152Z,20.26
2018-05-24T12:40:01.611Z,20.33
2018-05-24T12:42:30.219Z,20.44
2018-05-24T12:44:58.655Z,19.84
2018-05-24T12:47:27.540Z,19.76
2018-05-24T12:49:55.953Z,19.77
2018-05-24T12:52:24.497Z,19.49
2018-05-24T12:54:52.966Z,19.50
2018-05-24T12:57:21.636Z,19.37
2018-05-24T12:59:50.085Z,19.39
2018-05-24T13:02:18.540Z,18.92
2018-05-24T13:04:46.935Z,19.67
2018-05-24T13:07:15.343Z,19.82
2018-05-24T13:09:43.761Z,19.76
2018-05-24T13:12:12.153Z,20.33
2018-05-24T13:14:40.923Z,20.80
2018-05-24T13:17:09.319Z,20.62
2018-05-24T13:19:37.664Z,21.30
2018-05-24T13:22:06.563Z,21.38
2018-05-24T13:24:34.927Z,21.43
2018-05-24T13:27:03.297Z,22.00
2018-05-24T13:29:31.920Z,23.02
2018-05-24T13:32:00.284Z,24.24
2018-05-24T13:34:28.750Z,24.92
2018-05-24T13:36:57.657Z,25.29
2018-05-24T13:39:26.032Z,25.30
2018-05-24T13:41:54.491Z,25.51
2018-05-24T13:44:23.110Z,25.39
2018-05-24T13:46:51.520Z,25.31
2018-05-24T13:49:19.928Z,25.07
2018-05-24T13:51:48.782Z,24.74
2018-05-24T13:54:17.194Z,25.35
2018-05-24T13:56:45.564Z,25.94
2018-05-24T13:59:14.308Z,26.15
2018-05-24T14:01:42.802Z,26.88
2018-05-24T14:04:11.177Z,27.57
2018-05-24T14:06:39.577Z,27.49
2018-05-24T14:09:07.992Z,27.29
2018-05-24T14:11:36.359Z,27.36
2018-05-24T14:14:05.339Z,27.69
2018-05-24T14:16:33.703Z,27.49
2018-05-24T14:19:02.129Z,27.34
2018-05-24T14:21:31.169Z,25.62
2018-05-24T14:23:59.570Z,26.03
2018-05-24T14:26:27.958Z,26.98
2018-05-24T14:28:56.733Z,27.12
2018-05-24T14:31:25.201Z,26.63
2018-05-24T14:33:53.566Z,27.17
2018-05-24T14:36:22.353Z,27.52
2018-05-24T14:38:50.718Z,28.23
2018-05-24T14:41:19.077Z,30.05
2018-05-24T14:43:47.983Z,31.16
2018-05-24T14:46:16.363Z,31.85
2018-05-24T14:48:44.746Z,31.87
2018-05-24T14:51:13.367Z,32.57
2018-05-24T14:53:41.740Z,33.73
2018-05-24T14:56:10.103Z,33.61
2018-05-24T14:58:38.527Z,34.62
2018-05-24T15:01:07.124Z,35.24
2018-05-24T15:03:35.605Z,35.58
2018-05-24T15:06:04.018Z,35.90
2018-05-24T15:08:32.399Z,35.32
2018-05-24T15:11:01.567Z,34.72
2018-05-24T15:13:41.802Z,35.28
2018-05-24T15:16:10.283Z,33.90
2018-05-24T15:18:38.915Z,33.72
2018-05-24T15:21:07.376Z,33.58
2018-05-24T15:23:35.739Z,32.90
2018-05-24T15:26:04.185Z,33.38
2018-05-24T15:28:32.576Z,32.57
2018-05-24T15:31:01.009Z,32.45
2018-05-24T15:33:29.506Z,32.64
2018-05-24T15:35:57.928Z,32.81
2018-05-24T15:38:26.431Z,34.03
2018-05-24T15:40:54.843Z,33.96
2018-05-24T15:43:23.215Z,32.64
2018-05-24T15:45:51.641Z,31.40
2018-05-24T15:48:20.075Z,31.15
2018-05-24T15:50:48.461Z,30.73
2018-05-24T15:53:16.889Z,30.43
2018-05-24T15:55:45.246Z,29.97
2018-05-24T15:58:13.647Z,27.73
2018-05-24T16:00:42.010Z,25.80
2018-05-24T16:03:10.441Z,26.19
2018-05-24T16:05:38.852Z,26.51
2018-05-24T16:08:07.292Z,27.31
2018-05-24T16:10:35.691Z,26.90
2018-05-24T16:13:04.078Z,26.22
2018-05-24T16:15:32.475Z,25.66
2018-05-24T16:18:00.838Z,25.52
2018-05-24T16:20:29.239Z,25.59
2018-05-24T16:22:57.601Z,25.32
2018-05-24T16:25:26.125Z,24.33
2018-05-24T16:27:54.513Z,24.00
2018-05-24T16:30:22.947Z,23.68
2018-05-24T16:32:51.356Z,23.02
2018-05-24T16:35:19.767Z,22.41
2018-05-24T16:37:48.187Z,22.58
2018-05-24T16:40:16.563Z,21.89
2018-05-24T16:42:44.976Z,21.71
2018-05-24T16:45:13.368Z,21.39
2018-05-24T16:47:41.778Z,21.80
2018-05-24T16:50:10.191Z,22.04
2018-05-24T16:52:38.605Z,21.75
2018-05-24T16:55:06.984Z,21.30
2018-05-24T16:57:35.352Z,21.16
2018-05-24T17:00:03.794Z,21.23
2018-05-24T17:02:32.314Z,21.15
2018-05-24T17:05:00.750Z,21.30
2018-05-24T17:07:29.114Z,21.10
2018-05-24T17:09:57.516Z,20.98
2018-05-24T17:12:25.891Z,21.01
2018-05-24T17:14:54.532Z,21.13
2018-05-24T17:17:22.932Z,20.82
2018-05-24T17:19:51.323Z,20.38
2018-05-24T17:22:19.728Z,19.89
2018-05-24T17:24:48.121Z,19.82
2018-05-24T17:27:16.538Z,19.64
2018-05-24T17:29:44.947Z,19.59
2018-05-24T17:32:13.373Z,19.69
2018-05-24T17:34:41.754Z,19.55
2018-05-24T17:37:10.251Z,19.65
2018-05-24T17:39:38.627Z,19.20
2018-05-24T17:42:06.996Z,19.06
2018-05-24T17:44:35.412Z,18.91
2018-05-24T17:47:03.781Z,18.86
2018-05-24T17:49:32.170Z,18.87
2018-05-24T17:52:00.585Z,18.78
2018-05-24T17:54:28.951Z,18.80
2018-05-24T17:56:57.386Z,18.97
2018-05-24T17:59:25.766Z,19.03
2018-05-24T18:01:54.223Z,18.84
2018-05-24T18:04:22.675Z,18.53
2018-05-24T18:06:51.095Z,18.31
2018-05-24T18:09:19.479Z,18.43
2018-05-24T18:11:47.879Z,18.55
2018-05-24T18:14:16.407Z,18.59
2018-05-24T18:16:44.841Z,18.57
2018-05-24T18:19:13.255Z,18.57
2018-05-24T18:21:41.691Z,18.61
2018-05-24T18:24:10.096Z,18.60
2018-05-24T18:26:38.459Z,18.61
2018-05-24T18:29:06.946Z,18.57
2018-05-24T18:31:35.378Z,18.61
2018-05-24T18:34:03.816Z,18.51
2018-05-24T18:36:32.249Z,18.41
2018-05-24T18:39:00.622Z,18.28
2018-05-24T18:41:29.028Z,18.26
2018-05-24T18:43:57.438Z,18.20
2018-05-24T18:46:25.827Z,18.23
2018-05-24T18:48:54.284Z,18.24
2018-05-24T18:51:22.716Z,18.13
2018-05-24T18:53:51.202Z,17.98
2018-05-24T18:56:19.640Z,17.99
2018-05-24T18:58:48.040Z,18.17
2018-05-24T19:01:16.817Z,18.20
2018-05-24T19:03:45.197Z,18.20
2018-05-24T19:06:13.559Z,18.12
2018-05-24T19:08:42.020Z,17.92
2018-05-24T19:11:10.543Z,17.79
2018-05-24T19:13:38.928Z,17.73
2018-05-24T19:16:07.363Z,17.82
2018-05-24T19:18:35.779Z,17.72
2018-05-24T19:21:04.157Z,17.99
2018-05-24T19:23:32.590Z,17.95
2018-05-24T19:26:00.967Z,17.91
2018-05-24T19:28:29.328Z,17.89
2018-05-24T19:30:57.817Z,17.33
2018-05-24T19:33:26.220Z,17.78
2018-05-24T19:35:54.762Z,17.58
2018-05-24T19:38:23.324Z,17.49
2018-05-24T19:40:51.722Z,17.54
2018-05-24T19:43:20.122Z,17.60
2018-05-24T19:45:48.534Z,17.61
2018-05-24T19:48:16.915Z,17.57
2018-05-24T19:50:45.294Z,17.52
2018-05-24T19:53:14.047Z,17.32
2018-05-24T19:55:42.490Z,17.00
2018-05-24T19:58:10.895Z,16.83
2018-05-24T20:00:39.416Z,16.85
2018-05-24T20:03:08.063Z,16.68
2018-05-24T20:05:36.451Z,16.65
2018-05-24T20:08:04.844Z,16.47
2018-05-24T20:10:33.596Z,16.52
2018-05-24T20:13:01.981Z,16.56
2018-05-24T20:15:30.371Z,16.61
2018-05-24T20:17:59.140Z,16.42
2018-05-24T20:20:27.499Z,16.56
2018-05-24T20:22:55.883Z,16.62
2018-05-24T20:25:24.487Z,16.52
2018-05-24T20:27:52.851Z,16.19
2018-05-24T20:30:21.247Z,16.27
2018-05-24T20:32:50.064Z,16.50
2018-05-24T20:37:53.504Z,16.27
2018-05-24T20:40:21.906Z,16.12
2018-05-24T20:42:50.278Z,16.24
2018-05-24T20:45:19.010Z,15.98
2018-05-24T20:47:47.559Z,16.14
2018-05-24T20:50:15.920Z,16.22
2018-05-24T20:52:44.329Z,16.32
2018-05-24T20:55:12.691Z,16.15
2018-05-24T20:57:41.051Z,16.20
2018-05-24T21:00:09.860Z,16.13
2018-05-24T21:02:38.243Z,16.27
2018-05-24T21:05:06.607Z,16.19
2018-05-24T21:07:35.435Z,15.99
2018-05-24T21:10:03.874Z,16.06
2018-05-24T21:12:32.239Z,16.05
2018-05-24T21:15:00.785Z,15.99
2018-05-24T21:17:29.194Z,15.98
2018-05-24T21:19:57.611Z,15.78
2018-05-24T21:22:26.294Z,15.60
2018-05-24T21:24:54.656Z,15.72
2018-05-24T21:27:23.038Z,15.71
2018-05-24T21:29:51.872Z,15.21
2018-05-24T21:32:20.248Z,15.31
2018-05-24T21:34:48.849Z,15.56
2018-05-24T21:37:18.052Z,15.17
2018-05-24T21:39:46.457Z,15.30
2018-05-24T21:42:14.863Z,15.35
2018-05-24T21:44:43.682Z,15.52
2018-05-24T21:47:12.055Z,15.37
2018-05-24T21:49:40.425Z,15.34
2018-05-24T21:52:08.834Z,15.12
2018-05-24T21:54:37.205Z,15.05
2018-05-24T21:57:05.571Z,15.23
2018-05-24T21:59:34.270Z,15.14
2018-05-24T22:02:02.706Z,15.36
2018-05-24T22:04:31.039Z,15.26
2018-05-24T22:06:59.695Z,15.02
2018-05-24T22:09:28.059Z,14.99
2018-05-24T22:11:56.498Z,15.17
2018-05-24T22:14:25.242Z,15.13
2018-05-24T22:16:53.643Z,15.09
2018-05-24T22:19:22.023Z,15.09
2018-05-24T22:21:50.619Z,14.95
2018-05-24T22:24:19.014Z,15.02
2018-05-24T22:26:47.392Z,15.02
2018-05-24T22:29:16.053Z,14.75
2018-05-24T22:31:44.440Z,14.98
2018-05-24T22:34:12.800Z,14.87
2018-05-24T22:36:41.404Z,14.75
2018-05-24T22:39:09.773Z,14.78
2018-05-24T22:41:38.137Z,14.83
2018-05-24T22:44:06.548Z,14.94
2018-05-24T22:46:34.982Z,14.93
2018-05-24T22:49:03.357Z,14.84
2018-05-24T22:51:32.087Z,14.87
2018-05-24T22:54:00.458Z,14.79
2018-05-24T22:56:28.894Z,14.58
2018-05-24T22:58:57.640Z,14.67
2018-05-24T23:01:26.203Z,14.70
2018-05-24T23:03:54.606Z,14.76
2018-05-24T23:06:23.310Z,14.31
2018-05-24T23:08:51.705Z,14.21
2018-05-24T23:11:20.077Z,14.27
2018-05-24T23:13:48.839Z,14.36
2018-05-24T23:16:17.213Z,14.56
2018-05-24T23:18:45.655Z,14.47
2018-05-24T23:21:14.505Z,14.16
2018-05-24T23:23:43.075Z,13.90
2018-05-24T23:26:11.494Z,14.01
2018-05-24T23:28:40.251Z,14.08
2018-05-24T23:31:08.631Z,14.02
2018-05-24T23:33:37.009Z,13.77
2018-05-24T23:36:05.802Z,13.76
2018-05-24T23:38:34.167Z,13.75
2018-05-24T23:41:02.553Z,13.81
2018-05-24T23:43:31.242Z,13.86
2018-05-24T23:45:59.656Z,14.18
2018-05-24T23:48:28.036Z,14.22
2018-05-24T23:50:56.801Z,14.37
2018-05-24T23:53:25.189Z,14.18
2018-05-24T23:55:53.571Z,13.96
2018-05-24T23:58:22.251Z,13.98
